createdAt,value
2019-03-27T00:00:41.444Z,4.28
2019-03-27T00:03:10.625Z,4.65
2019-03-27T00:05:39.952Z,4.78
2019-03-27T00:08:09.276Z,4.95
2019-03-27T00:10:38.556Z,4.70
2019-03-27T00:13:07.736Z,4.97
2019-03-27T00:15:36.929Z,4.78
2019-03-27T00:18:06.380Z,4.62
2019-03-27T00:20:35.672Z,4.60
2019-03-27T00:23:04.837Z,4.67
2019-03-27T00:25:34.080Z,4.70
2019-03-27T00:28:03.350Z,4.65
2019-03-27T00:30:32.561Z,4.90
2019-03-27T00:33:01.835Z,5.47
2019-03-27T00:35:31.070Z,5.20
2019-03-27T00:38:00.299Z,5.65
2019-03-27T00:40:29.663Z,5.60
2019-03-27T00:42:58.971Z,6.15
2019-03-27T00:45:28.257Z,5.17
2019-03-27T00:47:57.541Z,5.70
2019-03-27T00:50:26.824Z,4.87
2019-03-27T00:52:56.097Z,4.95
2019-03-27T00:55:25.365Z,4.25
2019-03-27T00:57:54.637Z,5.15
2019-03-27T01:00:29.548Z,5.33
2019-03-27T01:02:58.825Z,5.72
2019-03-27T01:05:28.139Z,5.08
2019-03-27T01:07:57.234Z,5.08
2019-03-27T01:10:26.269Z,5.08
2019-03-27T01:12:55.614Z,5.80
2019-03-27T01:15:24.788Z,5.47
2019-03-27T01:17:53.993Z,5.35
2019-03-27T01:20:23.164Z,5.12
2019-03-27T01:22:52.304Z,5.53
2019-03-27T01:25:21.840Z,5.55
2019-03-27T01:27:50.989Z,5.92
2019-03-27T01:30:20.257Z,5.08
2019-03-27T01:32:49.550Z,6.00
2019-03-27T01:35:18.916Z,5.60
2019-03-27T01:37:47.987Z,5.20
2019-03-27T01:40:17.147Z,5.92
2019-03-27T01:42:46.405Z,5.97
2019-03-27T01:45:15.507Z,5.70
2019-03-27T01:47:44.635Z,6.35
2019-03-27T01:50:13.967Z,5.95
2019-03-27T01:52:43.109Z,5.33
2019-03-27T01:55:13.057Z,6.08
2019-03-27T01:57:42.323Z,6.10
2019-03-27T02:00:11.309Z,6.40
2019-03-27T02:02:40.593Z,5.72
2019-03-27T02:05:09.863Z,5.78
2019-03-27T02:07:39.074Z,6.22
2019-03-27T02:10:08.396Z,5.97
2019-03-27T02:12:37.685Z,6.40
2019-03-27T02:15:08.498Z,6.62
2019-03-27T02:17:37.665Z,7.28
2019-03-27T02:20:07.620Z,6.17
2019-03-27T02:22:36.889Z,6.28
2019-03-27T02:25:06.457Z,6.83
2019-03-27T02:27:35.736Z,6.95
2019-03-27T02:30:07.006Z,7.12
2019-03-27T02:32:36.358Z,6.75
2019-03-27T02:35:06.071Z,7.22
2019-03-27T02:37:35.482Z,7.72
2019-03-27T02:40:06.307Z,8.18
2019-03-27T02:42:35.536Z,9.78
2019-03-27T02:45:05.608Z,8.78
2019-03-27T02:47:34.741Z,8.68
2019-03-27T02:50:04.416Z,9.13
2019-03-27T02:52:33.742Z,8.63
2019-03-27T02:55:03.063Z,8.45
2019-03-27T02:57:32.333Z,8.35
2019-03-27T03:00:01.471Z,8.43
2019-03-27T03:02:30.718Z,9.23
2019-03-27T03:05:00.360Z,8.90
2019-03-27T03:07:29.459Z,8.30
2019-03-27T03:09:58.690Z,8.23
2019-03-27T03:12:27.818Z,9.50
2019-03-27T03:14:57.188Z,8.40
2019-03-27T03:17:26.425Z,8.75
2019-03-27T03:19:55.801Z,8.63
2019-03-27T03:22:25.073Z,9.40
2019-03-27T03:24:54.317Z,9.75
2019-03-27T03:27:23.644Z,8.58
2019-03-27T03:29:52.957Z,9.95
2019-03-27T03:32:22.313Z,10.00
2019-03-27T03:34:51.589Z,9.15
2019-03-27T03:37:20.723Z,9.70
2019-03-27T03:39:49.937Z,9.25
2019-03-27T03:42:19.024Z,10.45
2019-03-27T03:44:48.134Z,8.88
2019-03-27T03:47:17.432Z,9.28
2019-03-27T03:49:46.681Z,9.65
2019-03-27T03:52:15.878Z,9.85
2019-03-27T03:54:45.169Z,9.93
2019-03-27T03:57:14.466Z,10.03
2019-03-27T03:59:43.715Z,9.80
2019-03-27T04:02:12.856Z,9.28
2019-03-27T04:04:42.149Z,10.63
2019-03-27T04:07:11.351Z,10.80
2019-03-27T04:09:40.562Z,11.45
2019-03-27T04:12:09.870Z,10.48
2019-03-27T04:14:39.189Z,10.48
2019-03-27T04:17:16.886Z,9.78
2019-03-27T04:19:39.170Z,10.23
2019-03-27T04:22:08.377Z,10.85
2019-03-27T04:24:37.454Z,12.25
2019-03-27T04:27:06.808Z,11.45
2019-03-27T04:29:36.163Z,11.45
2019-03-27T04:32:05.459Z,12.18
2019-03-27T04:34:34.707Z,10.88
2019-03-27T04:37:03.991Z,12.25
2019-03-27T04:39:33.106Z,11.30
2019-03-27T04:42:02.468Z,11.80
2019-03-27T04:44:31.593Z,11.03
2019-03-27T04:47:00.893Z,12.25
2019-03-27T04:49:30.210Z,11.95
2019-03-27T04:51:59.557Z,11.73
2019-03-27T04:54:28.805Z,11.38
2019-03-27T04:56:58.121Z,11.73
2019-03-27T04:59:27.559Z,12.35
2019-03-27T05:01:56.732Z,13.38
2019-03-27T05:04:26.196Z,11.15
2019-03-27T05:06:55.421Z,11.80
2019-03-27T05:09:24.747Z,11.65
2019-03-27T05:11:54.007Z,11.97
2019-03-27T05:14:23.283Z,12.15
2019-03-27T05:16:52.334Z,11.90
2019-03-27T05:19:21.350Z,11.00
2019-03-27T05:21:50.718Z,12.47
2019-03-27T05:24:19.934Z,11.38
2019-03-27T05:26:49.268Z,12.07
2019-03-27T05:29:18.481Z,12.93
2019-03-27T05:31:47.807Z,11.88
2019-03-27T05:34:16.738Z,12.00
2019-03-27T05:36:45.926Z,11.30
2019-03-27T05:39:15.220Z,11.33
2019-03-27T05:41:44.523Z,11.70
2019-03-27T05:44:13.780Z,12.40
2019-03-27T05:46:42.956Z,11.65
2019-03-27T05:49:12.305Z,13.05
2019-03-27T05:51:41.729Z,11.85
2019-03-27T05:54:10.955Z,11.88
2019-03-27T05:56:40.141Z,11.75
2019-03-27T05:59:09.325Z,14.50
2019-03-27T06:01:38.553Z,13.60
2019-03-27T06:04:07.833Z,14.53
2019-03-27T06:06:37.029Z,14.35
2019-03-27T06:09:07.076Z,14.40
2019-03-27T06:11:36.290Z,15.13
2019-03-27T06:14:05.674Z,12.55
2019-03-27T06:16:34.908Z,12.78
2019-03-27T06:19:04.145Z,13.03
2019-03-27T06:21:33.480Z,11.95
2019-03-27T06:24:02.598Z,12.80
2019-03-27T06:26:31.748Z,9.98
2019-03-27T06:29:00.907Z,8.95
2019-03-27T06:31:30.249Z,9.90
2019-03-27T06:33:59.388Z,11.25
2019-03-27T06:36:28.635Z,10.68
2019-03-27T06:38:57.939Z,9.50
2019-03-27T06:41:27.109Z,9.63
2019-03-27T06:43:56.209Z,9.80
2019-03-27T06:46:25.441Z,9.33
2019-03-27T06:48:54.677Z,9.43
2019-03-27T06:51:25.260Z,9.85
2019-03-27T06:53:54.513Z,8.68
2019-03-27T06:56:23.778Z,6.60
2019-03-27T06:58:54.829Z,21.68
2019-03-27T07:01:23.796Z,9.75
2019-03-27T07:03:52.920Z,7.62
2019-03-27T07:06:22.102Z,7.12
2019-03-27T07:08:51.509Z,7.70
2019-03-27T07:11:20.796Z,7.00
2019-03-27T07:13:50.081Z,6.67
2019-03-27T07:16:19.198Z,5.95
2019-03-27T07:18:48.588Z,6.35
2019-03-27T07:21:17.721Z,6.62
2019-03-27T07:23:47.011Z,5.62
2019-03-27T07:26:16.033Z,6.42
2019-03-27T07:28:45.317Z,5.85
2019-03-27T07:31:14.452Z,5.90
2019-03-27T07:33:43.697Z,5.53
2019-03-27T07:36:12.957Z,6.10
2019-03-27T07:38:42.264Z,5.37
2019-03-27T07:41:11.426Z,6.55
2019-03-27T07:43:40.885Z,4.55
2019-03-27T07:46:10.048Z,5.28
2019-03-27T07:48:52.673Z,6.03
2019-03-27T07:51:09.948Z,5.25
2019-03-27T07:53:39.164Z,6.15
2019-03-27T07:56:08.236Z,6.28
2019-03-27T07:58:37.623Z,4.80
2019-03-27T08:01:06.863Z,5.80
2019-03-27T08:03:36.036Z,3.15
2019-03-27T08:06:05.522Z,4.17
2019-03-27T08:08:34.830Z,3.60
2019-03-27T08:11:04.248Z,2.95
2019-03-27T08:13:33.464Z,2.77
2019-03-27T08:16:02.653Z,2.98
2019-03-27T08:18:31.918Z,2.90
2019-03-27T08:21:01.178Z,3.22
2019-03-27T08:23:30.317Z,3.37
2019-03-27T08:25:59.629Z,3.75
2019-03-27T08:28:28.950Z,4.25
2019-03-27T08:30:58.228Z,4.80
2019-03-27T08:33:27.368Z,5.08
2019-03-27T08:35:56.433Z,5.15
2019-03-27T08:38:25.720Z,6.65
2019-03-27T08:40:54.916Z,5.45
2019-03-27T08:43:25.605Z,6.85
2019-03-27T08:45:55.054Z,6.87
2019-03-27T08:48:24.445Z,7.25
2019-03-27T08:50:53.745Z,6.87
2019-03-27T08:53:22.944Z,7.33
2019-03-27T08:55:52.228Z,6.67
2019-03-27T08:58:21.388Z,6.42
2019-03-27T09:00:52.326Z,7.37
2019-03-27T09:03:21.421Z,7.30
2019-03-27T09:05:50.632Z,8.95
2019-03-27T09:08:19.669Z,8.65
2019-03-27T09:10:49.100Z,9.23
2019-03-27T09:13:18.328Z,9.48
2019-03-27T09:15:47.364Z,10.80
2019-03-27T09:18:17.043Z,10.82
2019-03-27T09:20:46.348Z,12.18
2019-03-27T09:23:15.484Z,11.43
2019-03-27T09:25:44.751Z,11.28
2019-03-27T09:28:13.974Z,12.88
2019-03-27T09:30:43.144Z,12.40
2019-03-27T09:33:12.270Z,12.60
2019-03-27T09:35:41.493Z,11.65
2019-03-27T09:38:10.829Z,12.98
2019-03-27T09:40:40.080Z,18.42
2019-03-27T09:43:09.341Z,15.88
2019-03-27T09:45:38.470Z,16.40
2019-03-27T09:48:07.488Z,14.50
2019-03-27T09:50:36.618Z,11.12
2019-03-27T09:53:05.861Z,12.15
2019-03-27T09:55:35.122Z,12.85
2019-03-27T09:58:04.420Z,13.75
2019-03-27T10:00:49.018Z,10.08
2019-03-27T10:03:18.305Z,9.80
2019-03-27T10:05:47.551Z,11.78
2019-03-27T10:08:16.738Z,12.58
2019-03-27T10:10:46.030Z,14.03
2019-03-27T10:13:15.337Z,13.38
2019-03-27T10:15:44.449Z,12.95
2019-03-27T10:18:13.640Z,13.05
2019-03-27T10:20:42.835Z,12.15
2019-03-27T10:23:12.115Z,13.15
2019-03-27T10:25:41.301Z,13.08
2019-03-27T10:28:10.541Z,11.85
2019-03-27T10:30:39.690Z,12.98
2019-03-27T10:33:09.788Z,11.80
2019-03-27T10:35:39.086Z,12.15
2019-03-27T10:38:08.297Z,12.93
2019-03-27T10:40:37.532Z,11.83
2019-03-27T10:43:06.844Z,10.80
2019-03-27T10:45:35.985Z,9.50
2019-03-27T10:48:05.258Z,8.80
2019-03-27T10:50:34.329Z,8.25
2019-03-27T10:53:03.650Z,8.33
2019-03-27T10:55:34.454Z,9.88
2019-03-27T10:58:03.662Z,8.93
2019-03-27T11:00:32.849Z,8.15
2019-03-27T11:03:02.191Z,6.95
2019-03-27T11:05:31.419Z,7.00
2019-03-27T11:08:00.789Z,9.38
2019-03-27T11:10:29.920Z,8.70
2019-03-27T11:12:59.122Z,8.33
2019-03-27T11:15:28.367Z,7.67
2019-03-27T11:17:57.693Z,8.88
2019-03-27T11:20:31.412Z,7.30
2019-03-27T11:22:57.865Z,7.03
2019-03-27T11:25:27.146Z,6.28
2019-03-27T11:27:56.402Z,6.70
2019-03-27T11:30:28.694Z,6.90
2019-03-27T11:32:58.029Z,7.20
2019-03-27T11:35:27.357Z,8.93
2019-03-27T11:37:56.589Z,7.60
2019-03-27T11:40:25.774Z,9.15
2019-03-27T11:42:55.310Z,8.53
2019-03-27T11:45:24.639Z,9.05
2019-03-27T11:47:53.755Z,9.20
2019-03-27T11:50:23.081Z,11.25
2019-03-27T11:52:52.481Z,12.68
2019-03-27T11:55:21.664Z,9.95
2019-03-27T11:57:50.733Z,8.45
2019-03-27T12:00:20.143Z,6.95
2019-03-27T12:02:49.245Z,6.60
2019-03-27T12:05:18.400Z,4.97
2019-03-27T12:07:47.545Z,5.03
2019-03-27T12:10:16.736Z,4.50
2019-03-27T12:12:48.264Z,5.10
2019-03-27T12:15:19.844Z,5.62
2019-03-27T12:17:49.358Z,5.78
2019-03-27T12:20:18.566Z,6.08
2019-03-27T12:22:57.330Z,6.22
2019-03-27T12:25:18.662Z,7.50
2019-03-27T12:27:47.980Z,8.28
2019-03-27T12:30:17.198Z,7.83
2019-03-27T12:32:46.461Z,7.53
2019-03-27T12:35:15.726Z,7.42
2019-03-27T12:37:44.987Z,7.15
2019-03-27T12:40:14.192Z,8.20
2019-03-27T12:42:43.218Z,7.95
2019-03-27T12:45:12.461Z,7.28
2019-03-27T12:47:41.615Z,8.08
2019-03-27T12:50:10.865Z,8.63
2019-03-27T12:52:40.096Z,6.67
2019-03-27T12:55:09.388Z,6.72
2019-03-27T12:57:38.648Z,6.70
2019-03-27T13:00:08.578Z,6.05
2019-03-27T13:02:37.910Z,6.10
2019-03-27T13:05:08.036Z,5.40
2019-03-27T13:07:49.424Z,6.10
2019-03-27T13:10:07.994Z,6.15
2019-03-27T13:12:37.028Z,5.00
2019-03-27T13:15:09.287Z,4.97
2019-03-27T13:17:38.393Z,4.67
2019-03-27T13:20:07.709Z,4.62
2019-03-27T13:22:38.494Z,4.78
2019-03-27T13:25:07.816Z,5.08
2019-03-27T13:27:36.927Z,4.67
2019-03-27T13:30:08.392Z,4.33
2019-03-27T13:32:37.625Z,4.70
2019-03-27T13:35:08.270Z,4.12
2019-03-27T13:37:37.460Z,4.30
2019-03-27T13:40:09.617Z,4.33
2019-03-27T13:42:38.927Z,4.70
2019-03-27T13:45:08.962Z,4.03
2019-03-27T13:47:40.751Z,5.12
2019-03-27T13:50:13.152Z,4.60
2019-03-27T13:52:42.528Z,5.25
2019-03-27T13:55:11.941Z,4.67
2019-03-27T13:57:41.507Z,4.87
2019-03-27T14:00:13.709Z,5.10
2019-03-27T14:02:42.825Z,5.55
2019-03-27T14:05:12.258Z,7.15
2019-03-27T14:07:41.539Z,6.12
2019-03-27T14:10:10.824Z,6.05
2019-03-27T14:12:40.154Z,7.62
2019-03-27T14:15:13.671Z,9.95
2019-03-27T14:17:42.861Z,9.73
2019-03-27T14:20:12.122Z,9.80
2019-03-27T14:22:41.248Z,9.90
2019-03-27T14:25:10.476Z,9.80
2019-03-27T14:27:39.751Z,10.32
2019-03-27T14:33:01.988Z,8.95
2019-03-27T14:35:31.236Z,8.80
2019-03-27T14:38:00.478Z,8.30
2019-03-27T14:40:29.756Z,7.25
2019-03-27T14:42:58.721Z,5.28
2019-03-27T14:45:27.933Z,4.53
2019-03-27T14:47:57.221Z,4.80
2019-03-27T14:50:26.559Z,4.80
2019-03-27T14:52:55.690Z,5.15
2019-03-27T14:55:25.132Z,5.28
2019-03-27T14:57:54.410Z,6.03
2019-03-27T15:00:23.775Z,6.67
2019-03-27T15:02:53.067Z,6.58
2019-03-27T15:05:22.359Z,5.97
2019-03-27T15:07:51.530Z,6.10
2019-03-27T15:10:20.833Z,5.72
2019-03-27T15:12:50.250Z,5.62
2019-03-27T15:15:19.701Z,5.60
2019-03-27T15:17:48.937Z,5.20
2019-03-27T15:20:18.246Z,5.33
2019-03-27T15:22:47.480Z,4.30
2019-03-27T15:25:16.677Z,4.53
2019-03-27T15:27:45.854Z,4.10
2019-03-27T15:30:15.176Z,4.75
2019-03-27T15:32:44.482Z,4.97
2019-03-27T15:35:13.841Z,5.65
2019-03-27T15:37:43.153Z,6.17
2019-03-27T15:40:13.533Z,5.45
2019-03-27T15:42:42.698Z,5.45
2019-03-27T15:45:11.874Z,6.25
2019-03-27T15:47:41.362Z,6.20
2019-03-27T15:50:10.681Z,6.87
2019-03-27T15:52:40.106Z,6.40
2019-03-27T15:55:09.452Z,7.00
2019-03-27T15:57:38.846Z,7.12
2019-03-27T16:00:08.146Z,6.00
2019-03-27T16:02:37.532Z,5.78
2019-03-27T16:05:07.290Z,6.37
2019-03-27T16:07:36.436Z,6.40
2019-03-27T16:10:07.044Z,5.87
2019-03-27T16:12:36.669Z,6.35
2019-03-27T16:15:09.435Z,6.10
2019-03-27T16:17:38.585Z,5.37
2019-03-27T16:20:08.096Z,5.28
2019-03-27T16:22:49.778Z,5.25
2019-03-27T16:25:08.591Z,5.40
2019-03-27T16:27:37.841Z,5.30
2019-03-27T16:30:07.277Z,5.15
2019-03-27T16:32:36.505Z,5.28
2019-03-27T16:35:07.201Z,6.03
2019-03-27T16:37:36.453Z,6.35
2019-03-27T16:40:08.639Z,5.90
2019-03-27T16:42:37.858Z,5.70
2019-03-27T16:45:07.288Z,5.80
2019-03-27T16:47:36.574Z,5.97
2019-03-27T16:50:07.725Z,5.25
2019-03-27T16:52:37.046Z,5.08
2019-03-27T16:55:08.001Z,4.55
2019-03-27T16:57:37.520Z,4.90
2019-03-27T17:00:07.807Z,4.15
2019-03-27T17:02:36.980Z,5.22
2019-03-27T17:05:07.614Z,4.95
2019-03-27T17:07:36.888Z,4.67
2019-03-27T17:10:07.603Z,3.95
2019-03-27T17:12:36.849Z,4.58
2019-03-27T17:15:07.027Z,4.22
2019-03-27T17:17:36.328Z,4.22
2019-03-27T17:20:10.609Z,4.17
2019-03-27T17:22:39.729Z,3.72
2019-03-27T17:25:09.131Z,3.87
2019-03-27T17:27:38.272Z,3.83
2019-03-27T17:30:09.550Z,3.60
2019-03-27T17:32:38.878Z,3.83
2019-03-27T17:35:08.306Z,3.27
2019-03-27T17:37:37.636Z,3.65
2019-03-27T17:40:07.274Z,4.05
2019-03-27T17:42:36.612Z,3.83
2019-03-27T17:45:07.642Z,4.00
2019-03-27T17:47:36.770Z,3.85
2019-03-27T17:50:09.193Z,3.95
2019-03-27T17:52:38.669Z,3.70
2019-03-27T17:55:08.702Z,3.62
2019-03-27T17:57:38.123Z,3.45
2019-03-27T18:00:13.456Z,4.20
2019-03-27T18:02:42.626Z,3.62
2019-03-27T18:05:11.731Z,3.83
2019-03-27T18:07:41.211Z,3.70
2019-03-27T18:10:10.357Z,3.35
2019-03-27T18:12:39.553Z,4.60
2019-03-27T18:15:08.883Z,3.47
2019-03-27T18:17:38.212Z,3.35
2019-03-27T18:20:07.799Z,3.75
2019-03-27T18:22:37.053Z,3.20
2019-03-27T18:25:06.628Z,3.50
2019-03-27T18:27:35.905Z,3.75
2019-03-27T18:30:07.045Z,3.67
2019-03-27T18:32:36.336Z,3.47
2019-03-27T18:35:06.766Z,3.12
2019-03-27T18:37:36.045Z,4.33
2019-03-27T18:40:07.362Z,4.70
2019-03-27T18:42:36.576Z,4.22
2019-03-27T18:45:09.392Z,4.65
2019-03-27T18:47:39.130Z,4.25
2019-03-27T18:50:08.281Z,4.87
2019-03-27T18:52:37.308Z,4.70
2019-03-27T18:55:07.160Z,4.53
2019-03-27T18:57:36.441Z,4.85
2019-03-27T19:00:09.777Z,5.15
2019-03-27T19:02:39.052Z,5.10
2019-03-27T19:05:08.897Z,4.95
2019-03-27T19:07:38.205Z,4.95
2019-03-27T19:10:07.356Z,5.33
2019-03-27T19:12:36.701Z,5.00
2019-03-27T19:15:08.901Z,5.45
2019-03-27T19:17:38.145Z,4.42
2019-03-27T19:20:08.097Z,4.60
2019-03-27T19:22:37.284Z,4.75
2019-03-27T19:25:07.719Z,5.25
2019-03-27T19:27:36.950Z,4.62
2019-03-27T19:30:09.420Z,5.08
2019-03-27T19:32:38.899Z,5.08
2019-03-27T19:35:09.037Z,5.10
2019-03-27T19:37:38.325Z,5.30
2019-03-27T19:40:08.258Z,5.55
2019-03-27T19:42:37.642Z,4.95
2019-03-27T19:45:07.225Z,5.37
2019-03-27T19:47:36.413Z,5.15
2019-03-27T19:50:07.523Z,4.87
2019-03-27T19:52:36.878Z,5.42
2019-03-27T19:55:06.754Z,5.42
2019-03-27T19:57:36.506Z,5.65
2019-03-27T20:00:08.263Z,5.37
2019-03-27T20:02:37.529Z,4.92
2019-03-27T20:05:07.718Z,5.35
2019-03-27T20:07:37.350Z,4.78
2019-03-27T20:10:07.980Z,5.30
2019-03-27T20:12:37.512Z,5.78
2019-03-27T20:15:12.389Z,5.80
2019-03-27T20:17:40.742Z,5.65
2019-03-27T20:20:11.466Z,6.00
2019-03-27T20:22:41.106Z,6.08
2019-03-27T20:25:14.842Z,5.60
2019-03-27T20:27:43.684Z,5.95
2019-03-27T20:30:16.706Z,5.75
2019-03-27T20:32:48.082Z,5.75
2019-03-27T20:35:17.730Z,6.37
2019-03-27T20:37:47.190Z,6.37
2019-03-27T20:40:16.724Z,6.28
2019-03-27T20:42:46.133Z,6.90
2019-03-27T20:45:15.522Z,5.58
2019-03-27T20:47:44.965Z,6.22
2019-03-27T20:50:14.226Z,6.47
2019-03-27T20:52:43.641Z,6.42
2019-03-27T20:55:12.988Z,5.95
2019-03-27T20:57:42.241Z,6.65
2019-03-27T21:00:11.800Z,6.37
2019-03-27T21:02:41.137Z,6.83
2019-03-27T21:05:11.088Z,6.55
2019-03-27T21:07:40.391Z,6.55
2019-03-27T21:10:09.940Z,6.60
2019-03-27T21:12:39.476Z,6.47
2019-03-27T21:15:08.862Z,7.03
2019-03-27T21:17:38.073Z,8.08
2019-03-27T21:20:07.813Z,7.40
2019-03-27T21:22:37.171Z,7.37
2019-03-27T21:25:09.960Z,6.60
2019-03-27T21:27:39.398Z,7.55
2019-03-27T21:30:11.823Z,7.40
2019-03-27T21:32:40.895Z,7.20
2019-03-27T21:35:10.189Z,7.47
2019-03-27T21:37:39.393Z,7.92
2019-03-27T21:40:08.965Z,7.85
2019-03-27T21:42:38.329Z,7.25
2019-03-27T21:45:08.487Z,8.15
2019-03-27T21:47:37.742Z,7.67
2019-03-27T21:50:08.428Z,8.38
2019-03-27T21:52:37.727Z,6.47
2019-03-27T21:55:07.380Z,6.28
2019-03-27T21:57:36.717Z,6.53
2019-03-27T22:00:08.860Z,7.20
2019-03-27T22:02:38.031Z,6.83
2019-03-27T22:05:07.791Z,7.20
2019-03-27T22:07:37.039Z,7.62
2019-03-27T22:10:08.499Z,8.23
2019-03-27T22:12:38.513Z,7.78
2019-03-27T22:15:08.606Z,7.83
2019-03-27T22:17:37.853Z,7.40
2019-03-27T22:20:07.668Z,7.15
2019-03-27T22:22:36.936Z,6.25
2019-03-27T22:25:07.590Z,6.45
2019-03-27T22:27:36.878Z,5.78
2019-03-27T22:30:08.367Z,5.97
2019-03-27T22:32:37.530Z,6.60
2019-03-27T22:35:07.828Z,6.45
2019-03-27T22:37:37.143Z,5.58
2019-03-27T22:40:07.278Z,5.75
2019-03-27T22:42:36.553Z,6.22
2019-03-27T22:45:06.116Z,6.37
2019-03-27T22:47:35.386Z,6.03
2019-03-27T22:50:08.393Z,6.58
2019-03-27T22:52:37.475Z,6.40
2019-03-27T22:55:08.105Z,6.20
2019-03-27T22:57:37.301Z,5.53
2019-03-27T23:00:09.418Z,6.58
2019-03-27T23:02:38.631Z,6.17
2019-03-27T23:05:07.987Z,7.17
2019-03-27T23:07:37.215Z,6.40
2019-03-27T23:10:07.432Z,6.85
2019-03-27T23:12:36.709Z,6.40
2019-03-27T23:15:08.623Z,6.15
2019-03-27T23:17:37.793Z,6.15
2019-03-27T23:20:08.616Z,6.28
2019-03-27T23:22:37.628Z,6.78
2019-03-27T23:25:07.045Z,6.40
2019-03-27T23:27:36.305Z,6.08
2019-03-27T23:30:07.544Z,6.67
2019-03-27T23:32:36.664Z,5.72
2019-03-27T23:35:08.542Z,6.28
2019-03-27T23:37:37.858Z,6.30
2019-03-27T23:40:07.294Z,6.47
2019-03-27T23:42:36.568Z,6.22
2019-03-27T23:45:08.767Z,6.62
2019-03-27T23:47:38.083Z,6.28
2019-03-27T23:50:10.480Z,6.55
2019-03-27T23:52:39.717Z,6.08
2019-03-27T23:55:08.970Z,5.83
2019-03-27T23:57:38.157Z,6.67
